sensor_id;sensor_type;location;lat;lon;timestamp;P1;durP1;ratioP1;P2;durP2;ratioP2
920;SDS011;447;51.332;6.778;2023-08-08T00:00:12;3.00;;;2.80;;
920;SDS011;447;51.332;6.778;2023-08-08T00:02:39;2.43;;;2.23;;
920;SDS011;447;51.332;6.778;2023-08-08T00:05:05;3.23;;;2.80;;
920;SDS011;447;51.332;6.778;2023-08-08T00:07:34;3.07;;;2.77;;
920;SDS011;447;51.332;6.778;2023-08-08T00:10:00;2.50;;;2.30;;
920;SDS011;447;51.332;6.778;2023-08-08T00:12:26;2.70;;;2.50;;
920;SDS011;447;51.332;6.778;2023-08-08T00:14:52;2.90;;;2.70;;
920;SDS011;447;51.332;6.778;2023-08-08T00:17:19;2.67;;;2.47;;
920;SDS011;447;51.332;6.778;2023-08-08T00:19:49;2.80;;;2.60;;
920;SDS011;447;51.332;6.778;2023-08-08T00:22:16;3.10;;;2.57;;
920;SDS011;447;51.332;6.778;2023-08-08T00:24:41;2.70;;;2.50;;
920;SDS011;447;51.332;6.778;2023-08-08T00:27:07;2.97;;;2.60;;
920;SDS011;447;51.332;6.778;2023-08-08T00:29:34;2.90;;;2.70;;
920;SDS011;447;51.332;6.778;2023-08-08T00:32:00;2.73;;;2.53;;
920;SDS011;447;51.332;6.778;2023-08-08T00:34:30;2.57;;;2.37;;
920;SDS011;447;51.332;6.778;2023-08-08T00:36:55;2.70;;;2.50;;
920;SDS011;447;51.332;6.778;2023-08-08T00:39:24;3.10;;;2.80;;
920;SDS011;447;51.332;6.778;2023-08-08T00:41:55;2.50;;;2.33;;
920;SDS011;447;51.332;6.778;2023-08-08T00:44:21;2.80;;;2.60;;
920;SDS011;447;51.332;6.778;2023-08-08T00:46:47;2.80;;;2.47;;
920;SDS011;447;51.332;6.778;2023-08-08T00:49:15;3.90;;;2.73;;
920;SDS011;447;51.332;6.778;2023-08-08T00:51:41;2.90;;;2.70;;
920;SDS011;447;51.332;6.778;2023-08-08T00:54:07;2.63;;;2.43;;
920;SDS011;447;51.332;6.778;2023-08-08T00:56:39;2.60;;;2.40;;
920;SDS011;447;51.332;6.778;2023-08-08T00:59:07;3.30;;;3.10;;
920;SDS011;447;51.332;6.778;2023-08-08T01:01:39;2.97;;;2.77;;
920;SDS011;447;51.332;6.778;2023-08-08T01:04:06;2.87;;;2.67;;
920;SDS011;447;51.332;6.778;2023-08-08T01:06:39;3.37;;;2.60;;
920;SDS011;447;51.332;6.778;2023-08-08T01:09:28;3.10;;;2.90;;
920;SDS011;447;51.332;6.778;2023-08-08T01:12:01;2.83;;;2.57;;
920;SDS011;447;51.332;6.778;2023-08-08T01:14:30;2.67;;;2.47;;
920;SDS011;447;51.332;6.778;2023-08-08T01:17:01;2.90;;;2.70;;
920;SDS011;447;51.332;6.778;2023-08-08T01:19:31;3.03;;;2.83;;
920;SDS011;447;51.332;6.778;2023-08-08T01:21:59;2.90;;;2.70;;
920;SDS011;447;51.332;6.778;2023-08-08T01:24:33;2.90;;;2.70;;
920;SDS011;447;51.332;6.778;2023-08-08T01:27:02;3.20;;;3.00;;
920;SDS011;447;51.332;6.778;2023-08-08T01:29:29;2.73;;;2.53;;
920;SDS011;447;51.332;6.778;2023-08-08T01:31:55;2.77;;;2.57;;
920;SDS011;447;51.332;6.778;2023-08-08T01:34:23;3.10;;;2.80;;
920;SDS011;447;51.332;6.778;2023-08-08T01:39:22;2.83;;;2.63;;
920;SDS011;447;51.332;6.778;2023-08-08T01:41:52;3.07;;;2.87;;
920;SDS011;447;51.332;6.778;2023-08-08T01:44:20;2.87;;;2.67;;
920;SDS011;447;51.332;6.778;2023-08-08T01:46:53;2.90;;;2.70;;
920;SDS011;447;51.332;6.778;2023-08-08T01:49:21;3.10;;;2.80;;
920;SDS011;447;51.332;6.778;2023-08-08T01:51:50;2.93;;;2.43;;
920;SDS011;447;51.332;6.778;2023-08-08T01:54:20;5.67;;;2.77;;
920;SDS011;447;51.332;6.778;2023-08-08T01:56:46;2.80;;;2.60;;
920;SDS011;447;51.332;6.778;2023-08-08T01:59:17;3.30;;;3.00;;
920;SDS011;447;51.332;6.778;2023-08-08T02:01:43;3.07;;;2.77;;
920;SDS011;447;51.332;6.778;2023-08-08T02:04:10;2.93;;;2.73;;
920;SDS011;447;51.332;6.778;2023-08-08T02:06:36;3.37;;;3.10;;
920;SDS011;447;51.332;6.778;2023-08-08T02:09:03;2.97;;;2.77;;
920;SDS011;447;51.332;6.778;2023-08-08T02:11:32;2.60;;;2.50;;
920;SDS011;447;51.332;6.778;2023-08-08T02:13:58;3.00;;;2.70;;
920;SDS011;447;51.332;6.778;2023-08-08T02:16:26;3.20;;;3.00;;
920;SDS011;447;51.332;6.778;2023-08-08T02:18:55;4.40;;;2.93;;
920;SDS011;447;51.332;6.778;2023-08-08T02:21:26;3.70;;;3.40;;
920;SDS011;447;51.332;6.778;2023-08-08T02:23:52;2.80;;;2.60;;
920;SDS011;447;51.332;6.778;2023-08-08T02:26:18;2.90;;;2.60;;
920;SDS011;447;51.332;6.778;2023-08-08T02:28:47;3.50;;;3.30;;
920;SDS011;447;51.332;6.778;2023-08-08T02:31:14;3.30;;;3.00;;
920;SDS011;447;51.332;6.778;2023-08-08T02:33:52;3.07;;;2.87;;
920;SDS011;447;51.332;6.778;2023-08-08T02:36:18;4.67;;;2.70;;
920;SDS011;447;51.332;6.778;2023-08-08T02:38:48;3.43;;;3.07;;
920;SDS011;447;51.332;6.778;2023-08-08T02:41:18;2.87;;;2.67;;
920;SDS011;447;51.332;6.778;2023-08-08T02:43:52;3.80;;;2.90;;
920;SDS011;447;51.332;6.778;2023-08-08T02:46:18;3.77;;;3.37;;
920;SDS011;447;51.332;6.778;2023-08-08T02:48:44;3.50;;;3.30;;
920;SDS011;447;51.332;6.778;2023-08-08T02:51:10;2.83;;;2.63;;
920;SDS011;447;51.332;6.778;2023-08-08T02:53:37;3.10;;;2.90;;
920;SDS011;447;51.332;6.778;2023-08-08T02:56:03;3.30;;;3.00;;
920;SDS011;447;51.332;6.778;2023-08-08T02:58:34;3.47;;;3.17;;
920;SDS011;447;51.332;6.778;2023-08-08T03:01:04;3.90;;;2.90;;
920;SDS011;447;51.332;6.778;2023-08-08T03:03:30;5.10;;;3.37;;
920;SDS011;447;51.332;6.778;2023-08-08T03:06:03;3.67;;;3.27;;
920;SDS011;447;51.332;6.778;2023-08-08T03:08:30;3.23;;;3.03;;
920;SDS011;447;51.332;6.778;2023-08-08T03:10:59;3.70;;;3.40;;
920;SDS011;447;51.332;6.778;2023-08-08T03:13:30;4.47;;;3.40;;
920;SDS011;447;51.332;6.778;2023-08-08T03:16:01;3.37;;;3.07;;
920;SDS011;447;51.332;6.778;2023-08-08T03:18:27;4.83;;;3.20;;
920;SDS011;447;51.332;6.778;2023-08-08T03:20:59;3.17;;;2.90;;
920;SDS011;447;51.332;6.778;2023-08-08T03:23:27;3.27;;;2.97;;
920;SDS011;447;51.332;6.778;2023-08-08T03:25:54;3.07;;;2.87;;
920;SDS011;447;51.332;6.778;2023-08-08T03:28:24;7.13;;;3.50;;
920;SDS011;447;51.332;6.778;2023-08-08T03:30:54;4.47;;;3.03;;
920;SDS011;447;51.332;6.778;2023-08-08T03:33:26;5.03;;;3.70;;
920;SDS011;447;51.332;6.778;2023-08-08T03:35:55;3.50;;;3.20;;
920;SDS011;447;51.332;6.778;2023-08-08T03:38:23;3.53;;;3.23;;
920;SDS011;447;51.332;6.778;2023-08-08T03:40:53;5.63;;;3.27;;
920;SDS011;447;51.332;6.778;2023-08-08T03:43:24;3.67;;;3.37;;
920;SDS011;447;51.332;6.778;2023-08-08T03:45:50;7.77;;;3.83;;
920;SDS011;447;51.332;6.778;2023-08-08T03:48:18;3.43;;;3.23;;
920;SDS011;447;51.332;6.778;2023-08-08T03:50:47;3.43;;;3.13;;
920;SDS011;447;51.332;6.778;2023-08-08T03:53:13;3.77;;;3.37;;
920;SDS011;447;51.332;6.778;2023-08-08T03:55:41;3.87;;;3.50;;
920;SDS011;447;51.332;6.778;2023-08-08T03:58:07;3.77;;;3.40;;
920;SDS011;447;51.332;6.778;2023-08-08T04:00:36;3.63;;;3.33;;
920;SDS011;447;51.332;6.778;2023-08-08T04:03:07;3.70;;;3.23;;
920;SDS011;447;51.332;6.778;2023-08-08T04:05:33;4.03;;;3.40;;
920;SDS011;447;51.332;6.778;2023-08-08T04:07:59;4.77;;;3.40;;
920;SDS011;447;51.332;6.778;2023-08-08T04:10:25;4.07;;;3.27;;
920;SDS011;447;51.332;6.778;2023-08-08T04:12:54;4.97;;;3.77;;
920;SDS011;447;51.332;6.778;2023-08-08T04:15:22;4.53;;;4.10;;
920;SDS011;447;51.332;6.778;2023-08-08T04:17:49;6.53;;;3.20;;
920;SDS011;447;51.332;6.778;2023-08-08T04:20:15;4.30;;;3.80;;
920;SDS011;447;51.332;6.778;2023-08-08T04:22:41;4.70;;;3.70;;
920;SDS011;447;51.332;6.778;2023-08-08T04:25:09;5.10;;;3.57;;
920;SDS011;447;51.332;6.778;2023-08-08T04:27:35;4.87;;;3.70;;
920;SDS011;447;51.332;6.778;2023-08-08T04:30:01;3.73;;;3.30;;
920;SDS011;447;51.332;6.778;2023-08-08T04:32:28;5.03;;;3.80;;
920;SDS011;447;51.332;6.778;2023-08-08T04:34:58;5.30;;;3.33;;
920;SDS011;447;51.332;6.778;2023-08-08T04:37:24;3.40;;;3.20;;
920;SDS011;447;51.332;6.778;2023-08-08T04:39:50;3.90;;;3.00;;
920;SDS011;447;51.332;6.778;2023-08-08T04:42:18;5.10;;;3.60;;
920;SDS011;447;51.332;6.778;2023-08-08T04:44:48;3.80;;;3.40;;
920;SDS011;447;51.332;6.778;2023-08-08T04:47:14;3.77;;;3.47;;
920;SDS011;447;51.332;6.778;2023-08-08T04:49:42;4.70;;;3.47;;
920;SDS011;447;51.332;6.778;2023-08-08T04:52:11;3.47;;;3.27;;
920;SDS011;447;51.332;6.778;2023-08-08T04:54:37;3.87;;;3.40;;
920;SDS011;447;51.332;6.778;2023-08-08T04:57:02;3.70;;;3.40;;
920;SDS011;447;51.332;6.778;2023-08-08T04:59:31;5.27;;;3.80;;
920;SDS011;447;51.332;6.778;2023-08-08T05:02:00;3.50;;;3.20;;
920;SDS011;447;51.332;6.778;2023-08-08T05:04:29;4.63;;;3.80;;
920;SDS011;447;51.332;6.778;2023-08-08T05:06:56;3.83;;;3.53;;
920;SDS011;447;51.332;6.778;2023-08-08T05:09:26;4.10;;;3.70;;
920;SDS011;447;51.332;6.778;2023-08-08T05:11:55;5.33;;;3.33;;
920;SDS011;447;51.332;6.778;2023-08-08T05:14:26;4.37;;;4.00;;
920;SDS011;447;51.332;6.778;2023-08-08T05:16:54;4.10;;;3.70;;
920;SDS011;447;51.332;6.778;2023-08-08T05:19:22;4.37;;;3.50;;
920;SDS011;447;51.332;6.778;2023-08-08T05:21:52;6.67;;;3.70;;
920;SDS011;447;51.332;6.778;2023-08-08T05:24:18;5.23;;;3.70;;
920;SDS011;447;51.332;6.778;2023-08-08T05:26:47;4.60;;;3.90;;
920;SDS011;447;51.332;6.778;2023-08-08T05:29:15;3.97;;;3.57;;
920;SDS011;447;51.332;6.778;2023-08-08T05:31:44;4.77;;;3.70;;
920;SDS011;447;51.332;6.778;2023-08-08T05:34:09;4.33;;;3.60;;
920;SDS011;447;51.332;6.778;2023-08-08T05:36:35;5.03;;;3.70;;
920;SDS011;447;51.332;6.778;2023-08-08T05:39:01;4.33;;;3.50;;
920;SDS011;447;51.332;6.778;2023-08-08T05:41:30;3.90;;;3.50;;
920;SDS011;447;51.332;6.778;2023-08-08T05:43:56;5.73;;;3.90;;
920;SDS011;447;51.332;6.778;2023-08-08T05:46:24;6.37;;;3.43;;
920;SDS011;447;51.332;6.778;2023-08-08T05:48:50;5.50;;;3.50;;
920;SDS011;447;51.332;6.778;2023-08-08T05:51:16;8.67;;;4.27;;
920;SDS011;447;51.332;6.778;2023-08-08T05:53:45;4.70;;;4.20;;
920;SDS011;447;51.332;6.778;2023-08-08T05:56:11;4.60;;;4.20;;
920;SDS011;447;51.332;6.778;2023-08-08T05:58:37;7.10;;;4.10;;
920;SDS011;447;51.332;6.778;2023-08-08T06:01:05;4.60;;;4.20;;
920;SDS011;447;51.332;6.778;2023-08-08T06:03:35;6.50;;;4.27;;
920;SDS011;447;51.332;6.778;2023-08-08T06:06:03;4.67;;;4.27;;
920;SDS011;447;51.332;6.778;2023-08-08T06:08:30;6.23;;;4.13;;
920;SDS011;447;51.332;6.778;2023-08-08T06:10:57;5.30;;;3.87;;
920;SDS011;447;51.332;6.778;2023-08-08T06:13:23;5.53;;;4.17;;
920;SDS011;447;51.332;6.778;2023-08-08T06:15:52;5.40;;;4.97;;
920;SDS011;447;51.332;6.778;2023-08-08T06:18:20;6.10;;;4.67;;
920;SDS011;447;51.332;6.778;2023-08-08T06:20:46;6.00;;;4.60;;
920;SDS011;447;51.332;6.778;2023-08-08T06:23:12;5.13;;;4.30;;
920;SDS011;447;51.332;6.778;2023-08-08T06:25:38;6.90;;;4.83;;
920;SDS011;447;51.332;6.778;2023-08-08T06:28:04;6.47;;;4.60;;
920;SDS011;447;51.332;6.778;2023-08-08T06:30:32;5.27;;;4.20;;
920;SDS011;447;51.332;6.778;2023-08-08T06:32:57;8.20;;;4.40;;
920;SDS011;447;51.332;6.778;2023-08-08T06:35:26;5.80;;;5.00;;
920;SDS011;447;51.332;6.778;2023-08-08T06:37:57;6.37;;;4.90;;
920;SDS011;447;51.332;6.778;2023-08-08T06:40:23;6.40;;;5.13;;
920;SDS011;447;51.332;6.778;2023-08-08T06:42:55;7.13;;;5.77;;
920;SDS011;447;51.332;6.778;2023-08-08T06:45:23;7.77;;;5.30;;
920;SDS011;447;51.332;6.778;2023-08-08T06:47:50;5.87;;;4.97;;
920;SDS011;447;51.332;6.778;2023-08-08T06:50:19;8.60;;;4.73;;
920;SDS011;447;51.332;6.778;2023-08-08T06:52:49;6.47;;;5.07;;
920;SDS011;447;51.332;6.778;2023-08-08T06:55:15;7.50;;;5.50;;
920;SDS011;447;51.332;6.778;2023-08-08T06:57:42;7.97;;;5.70;;
920;SDS011;447;51.332;6.778;2023-08-08T07:00:08;4.97;;;4.57;;
920;SDS011;447;51.332;6.778;2023-08-08T07:02:37;5.37;;;4.40;;
920;SDS011;447;51.332;6.778;2023-08-08T07:05:03;5.43;;;4.80;;
920;SDS011;447;51.332;6.778;2023-08-08T07:07:33;5.63;;;4.40;;
920;SDS011;447;51.332;6.778;2023-08-08T07:10:04;6.77;;;6.07;;
920;SDS011;447;51.332;6.778;2023-08-08T07:12:34;5.13;;;4.63;;
920;SDS011;447;51.332;6.778;2023-08-08T07:15:01;7.93;;;5.60;;
920;SDS011;447;51.332;6.778;2023-08-08T07:17:29;7.10;;;5.30;;
920;SDS011;447;51.332;6.778;2023-08-08T07:19:55;8.87;;;5.00;;
920;SDS011;447;51.332;6.778;2023-08-08T07:22:22;7.97;;;5.67;;
920;SDS011;447;51.332;6.778;2023-08-08T07:24:47;5.77;;;5.27;;
920;SDS011;447;51.332;6.778;2023-08-08T07:27:16;6.93;;;5.37;;
920;SDS011;447;51.332;6.778;2023-08-08T07:29:42;6.00;;;4.73;;
920;SDS011;447;51.332;6.778;2023-08-08T07:32:10;5.23;;;4.77;;
920;SDS011;447;51.332;6.778;2023-08-08T07:34:37;7.53;;;5.50;;
920;SDS011;447;51.332;6.778;2023-08-08T07:37:03;7.20;;;5.87;;
920;SDS011;447;51.332;6.778;2023-08-08T07:39:33;7.20;;;5.33;;
920;SDS011;447;51.332;6.778;2023-08-08T07:42:01;6.50;;;5.90;;
920;SDS011;447;51.332;6.778;2023-08-08T07:44:29;7.60;;;5.37;;
920;SDS011;447;51.332;6.778;2023-08-08T07:46:59;5.23;;;4.63;;
920;SDS011;447;51.332;6.778;2023-08-08T07:49:25;6.37;;;4.70;;
920;SDS011;447;51.332;6.778;2023-08-08T07:51:53;6.00;;;5.50;;
920;SDS011;447;51.332;6.778;2023-08-08T07:54:19;7.30;;;4.90;;
920;SDS011;447;51.332;6.778;2023-08-08T07:56:46;5.43;;;4.90;;
920;SDS011;447;51.332;6.778;2023-08-08T07:59:11;6.50;;;4.93;;
920;SDS011;447;51.332;6.778;2023-08-08T08:01:40;6.90;;;5.40;;
920;SDS011;447;51.332;6.778;2023-08-08T08:04:07;5.63;;;4.97;;
920;SDS011;447;51.332;6.778;2023-08-08T08:06:33;9.23;;;5.10;;
920;SDS011;447;51.332;6.778;2023-08-08T08:08:59;7.20;;;4.90;;
920;SDS011;447;51.332;6.778;2023-08-08T08:11:27;7.30;;;4.90;;
920;SDS011;447;51.332;6.778;2023-08-08T08:13:53;6.80;;;5.10;;
920;SDS011;447;51.332;6.778;2023-08-08T08:16:21;5.83;;;5.17;;
920;SDS011;447;51.332;6.778;2023-08-08T08:18:47;6.67;;;4.70;;
920;SDS011;447;51.332;6.778;2023-08-08T08:21:15;8.97;;;4.90;;
920;SDS011;447;51.332;6.778;2023-08-08T08:23:45;11.97;;;5.07;;
920;SDS011;447;51.332;6.778;2023-08-08T08:26:14;6.50;;;5.23;;
920;SDS011;447;51.332;6.778;2023-08-08T08:28:40;7.90;;;4.53;;
920;SDS011;447;51.332;6.778;2023-08-08T08:31:08;5.97;;;4.60;;
920;SDS011;447;51.332;6.778;2023-08-08T08:33:41;7.63;;;4.67;;
920;SDS011;447;51.332;6.778;2023-08-08T08:36:07;7.90;;;4.90;;
920;SDS011;447;51.332;6.778;2023-08-08T08:38:36;6.20;;;4.97;;
920;SDS011;447;51.332;6.778;2023-08-08T08:41:02;8.87;;;5.60;;
920;SDS011;447;51.332;6.778;2023-08-08T08:43:29;6.23;;;4.57;;
920;SDS011;447;51.332;6.778;2023-08-08T08:45:56;8.73;;;5.10;;
920;SDS011;447;51.332;6.778;2023-08-08T08:48:25;8.30;;;4.83;;
920;SDS011;447;51.332;6.778;2023-08-08T08:50:51;4.70;;;4.27;;
920;SDS011;447;51.332;6.778;2023-08-08T08:53:18;5.17;;;4.10;;
920;SDS011;447;51.332;6.778;2023-08-08T08:55:47;8.90;;;4.73;;
920;SDS011;447;51.332;6.778;2023-08-08T08:58:14;7.40;;;4.80;;
920;SDS011;447;51.332;6.778;2023-08-08T09:00:45;4.97;;;4.40;;
920;SDS011;447;51.332;6.778;2023-08-08T09:03:13;6.77;;;4.50;;
920;SDS011;447;51.332;6.778;2023-08-08T09:05:41;5.87;;;4.50;;
920;SDS011;447;51.332;6.778;2023-08-08T09:08:09;4.67;;;4.37;;
920;SDS011;447;51.332;6.778;2023-08-08T09:10:38;7.90;;;4.63;;
920;SDS011;447;51.332;6.778;2023-08-08T09:13:05;8.13;;;4.87;;
920;SDS011;447;51.332;6.778;2023-08-08T09:15:33;6.87;;;5.27;;
920;SDS011;447;51.332;6.778;2023-08-08T09:18:00;8.57;;;4.97;;
920;SDS011;447;51.332;6.778;2023-08-08T09:20:31;4.70;;;4.17;;
920;SDS011;447;51.332;6.778;2023-08-08T09:22:57;6.10;;;4.87;;
920;SDS011;447;51.332;6.778;2023-08-08T09:25:23;6.43;;;3.97;;
920;SDS011;447;51.332;6.778;2023-08-08T09:27:54;6.67;;;5.17;;
920;SDS011;447;51.332;6.778;2023-08-08T09:30:21;7.73;;;4.80;;
920;SDS011;447;51.332;6.778;2023-08-08T09:32:47;7.90;;;4.67;;
920;SDS011;447;51.332;6.778;2023-08-08T09:35:13;6.20;;;5.30;;
920;SDS011;447;51.332;6.778;2023-08-08T09:37:40;7.10;;;4.70;;
920;SDS011;447;51.332;6.778;2023-08-08T09:40:07;4.50;;;4.10;;
920;SDS011;447;51.332;6.778;2023-08-08T09:42:33;6.53;;;4.67;;
920;SDS011;447;51.332;6.778;2023-08-08T09:45:00;6.03;;;4.80;;
920;SDS011;447;51.332;6.778;2023-08-08T09:47:30;7.40;;;4.93;;
920;SDS011;447;51.332;6.778;2023-08-08T09:49:59;7.57;;;4.07;;
920;SDS011;447;51.332;6.778;2023-08-08T09:52:29;5.10;;;4.60;;
920;SDS011;447;51.332;6.778;2023-08-08T09:54:58;4.70;;;4.20;;
920;SDS011;447;51.332;6.778;2023-08-08T09:57:25;4.90;;;4.33;;
920;SDS011;447;51.332;6.778;2023-08-08T09:59:54;5.50;;;4.47;;
920;SDS011;447;51.332;6.778;2023-08-08T10:02:25;4.80;;;4.30;;
920;SDS011;447;51.332;6.778;2023-08-08T10:04:54;8.77;;;4.73;;
920;SDS011;447;51.332;6.778;2023-08-08T10:07:23;7.30;;;3.97;;
920;SDS011;447;51.332;6.778;2023-08-08T10:09:51;5.70;;;4.53;;
920;SDS011;447;51.332;6.778;2023-08-08T10:12:20;5.70;;;4.50;;
920;SDS011;447;51.332;6.778;2023-08-08T10:14:50;4.40;;;4.00;;
920;SDS011;447;51.332;6.778;2023-08-08T10:17:20;4.23;;;3.83;;
920;SDS011;447;51.332;6.778;2023-08-08T10:19:56;4.50;;;4.07;;
920;SDS011;447;51.332;6.778;2023-08-08T10:22:22;6.20;;;3.80;;
920;SDS011;447;51.332;6.778;2023-08-08T10:24:52;5.33;;;4.07;;
920;SDS011;447;51.332;6.778;2023-08-08T10:27:35;4.37;;;3.80;;
920;SDS011;447;51.332;6.778;2023-08-08T10:30:06;5.97;;;4.90;;
920;SDS011;447;51.332;6.778;2023-08-08T10:32:40;4.43;;;4.00;;
920;SDS011;447;51.332;6.778;2023-08-08T10:35:11;4.97;;;4.40;;
920;SDS011;447;51.332;6.778;2023-08-08T10:37:52;4.73;;;4.20;;
920;SDS011;447;51.332;6.778;2023-08-08T10:40:21;6.57;;;4.47;;
920;SDS011;447;51.332;6.778;2023-08-08T10:42:47;5.50;;;4.07;;
920;SDS011;447;51.332;6.778;2023-08-08T10:45:14;4.67;;;3.90;;
920;SDS011;447;51.332;6.778;2023-08-08T10:47:42;4.53;;;4.00;;
920;SDS011;447;51.332;6.778;2023-08-08T10:50:11;6.00;;;4.40;;
920;SDS011;447;51.332;6.778;2023-08-08T10:57:54;4.07;;;3.70;;
920;SDS011;447;51.332;6.778;2023-08-08T11:00:23;7.70;;;3.73;;
920;SDS011;447;51.332;6.778;2023-08-08T11:02:53;8.97;;;4.53;;
920;SDS011;447;51.332;6.778;2023-08-08T11:05:20;5.10;;;3.63;;
920;SDS011;447;51.332;6.778;2023-08-08T11:07:49;4.27;;;3.80;;
920;SDS011;447;51.332;6.778;2023-08-08T11:10:18;4.60;;;3.77;;
920;SDS011;447;51.332;6.778;2023-08-08T11:13:00;7.90;;;4.33;;
920;SDS011;447;51.332;6.778;2023-08-08T11:15:34;4.53;;;4.10;;
920;SDS011;447;51.332;6.778;2023-08-08T11:18:04;5.50;;;3.80;;
920;SDS011;447;51.332;6.778;2023-08-08T11:20:33;5.97;;;4.03;;
920;SDS011;447;51.332;6.778;2023-08-08T11:23:01;4.97;;;4.30;;
920;SDS011;447;51.332;6.778;2023-08-08T11:25:28;4.73;;;4.23;;
920;SDS011;447;51.332;6.778;2023-08-08T11:27:55;6.10;;;4.13;;
920;SDS011;447;51.332;6.778;2023-08-08T11:30:22;4.63;;;4.10;;
920;SDS011;447;51.332;6.778;2023-08-08T11:32:53;5.40;;;3.90;;
920;SDS011;447;51.332;6.778;2023-08-08T11:35:23;4.07;;;3.67;;
920;SDS011;447;51.332;6.778;2023-08-08T11:37:52;6.27;;;4.10;;
920;SDS011;447;51.332;6.778;2023-08-08T11:40:20;5.63;;;4.73;;
920;SDS011;447;51.332;6.778;2023-08-08T11:42:52;4.97;;;4.57;;
920;SDS011;447;51.332;6.778;2023-08-08T11:45:20;5.50;;;3.87;;
920;SDS011;447;51.332;6.778;2023-08-08T11:47:50;4.80;;;3.93;;
920;SDS011;447;51.332;6.778;2023-08-08T11:50:21;4.83;;;4.03;;
920;SDS011;447;51.332;6.778;2023-08-08T11:52:51;5.23;;;4.67;;
920;SDS011;447;51.332;6.778;2023-08-08T11:55:26;6.53;;;4.97;;
920;SDS011;447;51.332;6.778;2023-08-08T11:57:53;11.37;;;4.90;;
920;SDS011;447;51.332;6.778;2023-08-08T12:00:30;4.10;;;3.80;;
920;SDS011;447;51.332;6.778;2023-08-08T12:03:01;4.53;;;3.87;;
920;SDS011;447;51.332;6.778;2023-08-08T12:05:29;4.93;;;4.43;;
920;SDS011;447;51.332;6.778;2023-08-08T12:08:04;4.40;;;3.90;;
920;SDS011;447;51.332;6.778;2023-08-08T12:10:34;6.53;;;4.03;;
920;SDS011;447;51.332;6.778;2023-08-08T12:13:02;5.77;;;4.33;;
920;SDS011;447;51.332;6.778;2023-08-08T12:15:32;5.03;;;4.47;;
920;SDS011;447;51.332;6.778;2023-08-08T12:18:00;4.70;;;4.03;;
920;SDS011;447;51.332;6.778;2023-08-08T12:20:29;4.63;;;4.23;;
920;SDS011;447;51.332;6.778;2023-08-08T12:22:58;8.07;;;4.93;;
920;SDS011;447;51.332;6.778;2023-08-08T12:25:25;5.90;;;4.67;;
920;SDS011;447;51.332;6.778;2023-08-08T12:27:53;6.40;;;4.37;;
920;SDS011;447;51.332;6.778;2023-08-08T12:30:21;5.00;;;4.53;;
920;SDS011;447;51.332;6.778;2023-08-08T12:32:50;4.93;;;4.43;;
920;SDS011;447;51.332;6.778;2023-08-08T12:35:16;4.87;;;4.47;;
920;SDS011;447;51.332;6.778;2023-08-08T12:37:47;5.93;;;4.37;;
920;SDS011;447;51.332;6.778;2023-08-08T12:40:15;4.80;;;4.37;;
920;SDS011;447;51.332;6.778;2023-08-08T12:42:41;6.00;;;4.23;;
920;SDS011;447;51.332;6.778;2023-08-08T12:45:07;4.20;;;3.80;;
920;SDS011;447;51.332;6.778;2023-08-08T12:47:37;4.50;;;3.80;;
920;SDS011;447;51.332;6.778;2023-08-08T12:50:06;4.93;;;4.17;;
920;SDS011;447;51.332;6.778;2023-08-08T12:52:40;7.80;;;3.87;;
920;SDS011;447;51.332;6.778;2023-08-08T12:55:11;5.53;;;4.67;;
920;SDS011;447;51.332;6.778;2023-08-08T12:57:42;6.17;;;4.30;;
920;SDS011;447;51.332;6.778;2023-08-08T13:00:08;5.90;;;3.80;;
920;SDS011;447;51.332;6.778;2023-08-08T13:02:37;5.20;;;4.70;;
920;SDS011;447;51.332;6.778;2023-08-08T13:05:06;4.50;;;4.20;;
920;SDS011;447;51.332;6.778;2023-08-08T13:07:35;7.90;;;4.07;;
920;SDS011;447;51.332;6.778;2023-08-08T13:10:03;4.70;;;4.30;;
920;SDS011;447;51.332;6.778;2023-08-08T13:12:30;4.33;;;3.73;;
920;SDS011;447;51.332;6.778;2023-08-08T13:15:01;4.90;;;4.50;;
920;SDS011;447;51.332;6.778;2023-08-08T13:17:31;5.07;;;4.37;;
920;SDS011;447;51.332;6.778;2023-08-08T13:19:57;4.60;;;4.30;;
920;SDS011;447;51.332;6.778;2023-08-08T13:22:24;7.23;;;5.10;;
920;SDS011;447;51.332;6.778;2023-08-08T13:24:49;6.50;;;4.83;;
920;SDS011;447;51.332;6.778;2023-08-08T13:27:16;7.33;;;4.00;;
920;SDS011;447;51.332;6.778;2023-08-08T13:29:44;5.00;;;3.33;;
920;SDS011;447;51.332;6.778;2023-08-08T13:32:12;4.60;;;4.20;;
920;SDS011;447;51.332;6.778;2023-08-08T13:34:39;4.37;;;3.97;;
920;SDS011;447;51.332;6.778;2023-08-08T13:37:05;7.10;;;4.00;;
920;SDS011;447;51.332;6.778;2023-08-08T13:39:31;4.83;;;3.60;;
920;SDS011;447;51.332;6.778;2023-08-08T13:42:01;4.20;;;3.80;;
920;SDS011;447;51.332;6.778;2023-08-08T13:44:27;5.00;;;4.50;;
920;SDS011;447;51.332;6.778;2023-08-08T13:46:56;4.57;;;3.80;;
920;SDS011;447;51.332;6.778;2023-08-08T13:49:25;5.87;;;4.13;;
920;SDS011;447;51.332;6.778;2023-08-08T13:51:58;4.67;;;3.90;;
920;SDS011;447;51.332;6.778;2023-08-08T13:54:24;3.77;;;3.50;;
920;SDS011;447;51.332;6.778;2023-08-08T13:56:50;3.80;;;3.50;;
920;SDS011;447;51.332;6.778;2023-08-08T13:59:16;4.80;;;4.30;;
920;SDS011;447;51.332;6.778;2023-08-08T14:01:42;3.80;;;3.50;;
920;SDS011;447;51.332;6.778;2023-08-08T14:04:08;4.90;;;3.50;;
920;SDS011;447;51.332;6.778;2023-08-08T14:06:34;3.50;;;3.20;;
920;SDS011;447;51.332;6.778;2023-08-08T14:09:00;4.20;;;3.80;;
920;SDS011;447;51.332;6.778;2023-08-08T14:11:26;4.77;;;4.03;;
920;SDS011;447;51.332;6.778;2023-08-08T14:13:52;3.90;;;3.60;;
920;SDS011;447;51.332;6.778;2023-08-08T14:16:19;4.17;;;3.63;;
920;SDS011;447;51.332;6.778;2023-08-08T14:18:47;3.80;;;3.53;;
920;SDS011;447;51.332;6.778;2023-08-08T14:21:14;4.07;;;3.67;;
920;SDS011;447;51.332;6.778;2023-08-08T14:23:41;3.93;;;3.50;;
920;SDS011;447;51.332;6.778;2023-08-08T14:26:06;3.80;;;3.37;;
920;SDS011;447;51.332;6.778;2023-08-08T14:28:35;4.03;;;3.73;;
920;SDS011;447;51.332;6.778;2023-08-08T14:31:01;4.60;;;4.20;;
920;SDS011;447;51.332;6.778;2023-08-08T14:33:27;4.60;;;4.20;;
920;SDS011;447;51.332;6.778;2023-08-08T14:35:54;4.07;;;3.70;;
920;SDS011;447;51.332;6.778;2023-08-08T14:40:49;3.37;;;3.07;;
920;SDS011;447;51.332;6.778;2023-08-08T14:43:16;3.97;;;3.50;;
920;SDS011;447;51.332;6.778;2023-08-08T14:45:42;4.30;;;3.90;;
920;SDS011;447;51.332;6.778;2023-08-08T14:48:08;4.33;;;3.80;;
920;SDS011;447;51.332;6.778;2023-08-08T14:50:34;4.30;;;3.90;;
920;SDS011;447;51.332;6.778;2023-08-08T14:53:00;5.13;;;4.20;;
920;SDS011;447;51.332;6.778;2023-08-08T14:55:27;4.03;;;3.63;;
920;SDS011;447;51.332;6.778;2023-08-08T14:57:53;4.80;;;3.80;;
920;SDS011;447;51.332;6.778;2023-08-08T15:00:19;3.57;;;3.27;;
920;SDS011;447;51.332;6.778;2023-08-08T15:02:45;4.70;;;3.10;;
920;SDS011;447;51.332;6.778;2023-08-08T15:05:11;3.80;;;3.50;;
920;SDS011;447;51.332;6.778;2023-08-08T15:07:37;3.70;;;3.40;;
920;SDS011;447;51.332;6.778;2023-08-08T15:10:06;3.40;;;3.20;;
920;SDS011;447;51.332;6.778;2023-08-08T15:12:32;5.53;;;3.10;;
920;SDS011;447;51.332;6.778;2023-08-08T15:15:01;3.40;;;3.10;;
920;SDS011;447;51.332;6.778;2023-08-08T15:17:31;4.43;;;3.27;;
920;SDS011;447;51.332;6.778;2023-08-08T15:20:00;3.40;;;3.10;;
920;SDS011;447;51.332;6.778;2023-08-08T15:22:26;3.40;;;3.20;;
920;SDS011;447;51.332;6.778;2023-08-08T15:24:54;3.70;;;3.40;;
920;SDS011;447;51.332;6.778;2023-08-08T15:27:20;3.77;;;3.57;;
920;SDS011;447;51.332;6.778;2023-08-08T15:29:46;3.60;;;3.30;;
920;SDS011;447;51.332;6.778;2023-08-08T15:32:15;3.50;;;3.30;;
920;SDS011;447;51.332;6.778;2023-08-08T15:34:41;4.47;;;2.87;;
920;SDS011;447;51.332;6.778;2023-08-08T15:37:08;3.40;;;3.10;;
920;SDS011;447;51.332;6.778;2023-08-08T15:39:37;4.67;;;2.73;;
920;SDS011;447;51.332;6.778;2023-08-08T15:42:07;2.60;;;2.50;;
920;SDS011;447;51.332;6.778;2023-08-08T15:44:33;5.00;;;3.50;;
920;SDS011;447;51.332;6.778;2023-08-08T15:47:06;3.17;;;2.97;;
920;SDS011;447;51.332;6.778;2023-08-08T15:49:36;3.70;;;2.80;;
920;SDS011;447;51.332;6.778;2023-08-08T15:52:02;2.90;;;2.70;;
920;SDS011;447;51.332;6.778;2023-08-08T15:54:28;3.10;;;2.90;;
920;SDS011;447;51.332;6.778;2023-08-08T15:56:54;2.80;;;2.60;;
920;SDS011;447;51.332;6.778;2023-08-08T15:59:22;4.43;;;3.40;;